Time;durP1;ratioP1;P1;durP2;ratioP2;P2;SDS_P1;SDS_P2;PMS_P1;PMS_P2;Temp;Humidity;BMP_temperature;BMP_pressure;BME280_temperature;BME280_humidity;BME280_pressure;Samples;Min_cycle;Max_cycle;Signal;HPM_P1;HPM_P2
2022/09/23 00:00:30;;;;;;;6.30;5.60;;;;;;;5.46;86.43;100997.48;87047;1306;24243;-71
2022/09/23 00:02:59;;;;;;;5.80;4.60;;;;;;;5.41;86.61;100995.26;87018;1307;22775;-71
2022/09/23 00:05:11;;;;;;;8.30;4.90;;;;;;;5.39;86.49;100994.92;87073;1292;22553;-71
2022/09/23 00:07:20;;;;;;;7.70;4.70;;;;;;;5.34;86.86;100993.04;87102;1280;22449;-70
2022/09/23 00:09:29;;;;;;;11.60;5.70;;;;;;;5.33;86.63;100994.27;87047;1284;24385;-70
2022/09/23 00:11:38;;;;;;;6.60;4.70;;;;;;;5.31;86.76;100994.27;87005;1287;22478;-71
2022/09/23 00:13:48;;;;;;;6.80;5.10;;;;;;;5.29;86.83;100993.59;87043;1281;22476;-70
2022/09/23 00:15:58;;;;;;;5.60;5.10;;;;;;;5.26;86.77;100993.63;86971;1295;22500;-70
2022/09/23 00:18:07;;;;;;;7.30;5.40;;;;;;;5.26;86.91;100991.54;87027;1281;22482;-70
2022/09/23 00:20:20;;;;;;;6.60;4.30;;;;;;;5.26;87.22;100987.21;86970;1285;22466;-70
2022/09/23 00:22:32;;;;;;;5.80;3.80;;;;;;;5.25;86.99;100987.75;87104;1283;22733;-70
2022/09/23 00:24:41;;;;;;;6.00;4.50;;;;;;;5.22;86.99;100987.08;87110;1293;22493;-69
2022/09/23 00:26:50;;;;;;;5.60;4.30;;;;;;;5.21;87.11;100986.73;87082;1306;22465;-70
2022/09/23 00:29:00;;;;;;;8.90;4.70;;;;;;;5.19;87.05;100987.27;87123;1281;22480;-70
2022/09/23 00:31:10;;;;;;;6.70;4.70;;;;;;;5.16;87.09;100985.37;87049;1292;22583;-70
2022/09/23 00:33:19;;;;;;;6.60;5.10;;;;;;;5.15;87.10;100989.02;87135;1277;25263;-70
2022/09/23 00:35:28;;;;;;;9.90;5.10;;;;;;;5.16;87.16;100990.21;87173;1285;23489;-69
2022/09/23 00:37:37;;;;;;;5.00;4.50;;;;;;;5.16;87.64;100990.40;87108;1290;22534;-69
2022/09/23 00:39:47;;;;;;;7.50;4.70;;;;;;;5.16;87.49;100992.81;87084;1306;22651;-70
2022/09/23 00:41:59;;;;;;;5.20;4.50;;;;;;;5.17;87.46;100988.66;87135;1283;22715;-69
2022/09/23 00:44:46;;;;;;;7.20;5.00;;;;;;;5.17;87.36;100988.66;87099;1297;24265;-67
2022/09/23 00:47:00;;;;;;;7.20;5.20;;;;;;;5.15;87.43;100986.94;87034;1289;22515;-68
2022/09/23 00:49:17;;;;;;;6.30;5.00;;;;;;;5.13;87.61;100984.88;87011;1286;22515;-71
2022/09/23 00:51:34;;;;;;;8.00;5.00;;;;;;;5.10;87.36;100986.11;87111;1306;22503;-69
2022/09/23 00:53:51;;;;;;;7.70;5.30;;;;;;;5.09;87.54;100987.67;86909;1286;25422;-68
2022/09/23 00:56:06;;;;;;;6.20;4.40;;;;;;;5.07;87.62;100984.90;87036;1307;22439;-69
2022/09/23 00:58:20;;;;;;;7.40;5.90;;;;;;;5.06;87.54;100987.49;87110;1281;22467;-67
2022/09/23 01:00:34;;;;;;;6.40;4.30;;;;;;;5.07;87.99;100987.50;87056;1281;22537;-71
2022/09/23 01:02:45;;;;;;;7.30;4.90;;;;;;;5.10;88.05;100986.45;87074;1306;22582;-70
2022/09/23 01:04:57;;;;;;;5.10;4.60;;;;;;;5.14;88.53;100985.56;87046;1308;22422;-68
2022/09/23 01:07:08;;;;;;;6.00;5.40;;;;;;;5.18;88.76;100983.47;87116;1287;22535;-70
2022/09/23 01:09:20;;;;;;;;;;;;;;;5.22;88.73;100982.40;87126;1306;22402;-69
2022/09/23 01:11:40;;;;;;;9.10;5.30;;;;;;;5.27;89.14;100982.02;87155;1299;22708;-70
2022/09/23 01:13:59;;;;;;;5.30;4.80;;;;;;;5.34;89.38;100980.07;87138;1281;22582;-71
2022/09/23 01:16:16;;;;;;;12.70;6.50;;;;;;;5.40;89.48;100980.89;87002;1307;22486;-70
2022/09/23 01:18:34;;;;;;;6.00;5.40;;;;;;;5.47;89.50;100982.92;87161;1281;22537;-69
2022/09/23 01:20:58;;;;;;;7.70;4.90;;;;;;;5.54;89.64;100981.30;87050;1306;22498;-69
2022/09/23 01:23:21;;;;;;;7.30;5.50;;;;;;;5.61;89.72;100983.16;86318;1287;1003177;-70
2022/09/23 01:25:47;;;;;;;7.90;5.80;;;;;;;5.68;89.63;100981.21;87092;1287;24939;-68
2022/09/23 01:28:08;;;;;;;10.70;6.20;;;;;;;5.74;89.67;100980.11;87164;1306;24347;-70
2022/09/23 01:30:41;;;;;;;5.40;4.90;;;;;;;5.82;90.21;100981.79;87015;1307;22495;-70
2022/09/23 01:32:59;;;;;;;6.60;5.80;;;;;;;5.88;90.03;100977.92;87148;1300;22476;-71
2022/09/23 01:35:13;;;;;;;5.70;5.00;;;;;;;5.91;90.00;100975.83;87111;1274;22496;-71
2022/09/23 01:37:29;;;;;;;6.00;5.40;;;;;;;5.96;90.31;100975.80;87154;1298;22428;-69
2022/09/23 01:39:42;;;;;;;7.10;4.90;;;;;;;6.02;90.24;100976.42;87067;1307;22489;-68
2022/09/23 01:41:58;;;;;;;7.70;5.70;;;;;;;6.10;90.45;100977.39;87060;1307;22495;-71
2022/09/23 01:44:10;;;;;;;10.20;5.90;;;;;;;6.17;90.59;100975.23;87091;1287;25400;-70
2022/09/23 01:46:21;;;;;;;7.50;5.50;;;;;;;6.23;90.57;100972.77;87027;1299;22508;-68
2022/09/23 01:48:34;;;;;;;6.40;5.20;;;;;;;6.26;90.46;100974.47;86974;1295;22551;-70
2022/09/23 01:50:56;;;;;;;6.20;5.40;;;;;;;6.30;90.46;100975.45;86995;1304;22515;-69
2022/09/23 01:53:14;;;;;;;5.90;5.40;;;;;;;6.33;90.22;100977.16;86979;1286;25400;-69
2022/09/23 01:55:30;;;;;;;5.90;5.30;;;;;;;6.32;90.08;100977.52;87046;1284;22717;-67
2022/09/23 01:57:43;;;;;;;6.20;5.00;;;;;;;6.28;89.76;100974.77;87112;1301;24230;-67
2022/09/23 01:59:55;;;;;;;6.50;6.00;;;;;;;6.24;89.62;100974.66;87015;1290;22508;-70
2022/09/23 02:02:06;;;;;;;6.30;5.70;;;;;;;6.18;89.56;100972.98;87048;1287;22495;-68
2022/09/23 02:04:22;;;;;;;6.30;5.70;;;;;;;6.16;89.53;100971.28;86995;1287;22453;-68
2022/09/23 02:11:22;;;;;;;8.20;6.00;;;;;;;6.02;89.36;100970.38;87356;1278;24413;-71
2022/09/23 02:13:54;;;;;;;7.70;5.90;;;;;;;5.97;89.03;100968.86;87286;1290;22471;-68
2022/09/23 02:16:07;;;;;;;9.00;5.90;;;;;;;5.93;89.16;100970.63;87149;1293;22539;-68
2022/09/23 02:18:19;;;;;;;6.50;5.90;;;;;;;5.87;88.81;100970.13;87170;1281;25324;-70
2022/09/23 02:20:30;;;;;;;7.10;6.40;;;;;;;5.80;88.67;100970.72;87098;1287;22498;-70
2022/09/23 02:22:45;;;;;;;8.60;6.30;;;;;;;5.73;88.77;100969.91;87120;1301;22471;-71
2022/09/23 02:24:54;;;;;;;6.90;6.00;;;;;;;5.68;88.63;100971.16;87120;1286;22474;-70
2022/09/23 02:27:11;;;;;;;6.60;5.90;;;;;;;5.62;88.54;100973.64;87100;1281;22459;-71
2022/09/23 02:29:25;;;;;;;9.50;5.20;;;;;;;5.56;88.22;100972.13;87106;1282;22481;-69
2022/09/23 02:31:38;;;;;;;8.30;6.20;;;;;;;5.50;88.44;100971.66;87072;1306;22484;-71
2022/09/23 02:33:52;;;;;;;7.00;6.30;;;;;;;5.46;88.67;100969.77;87137;1279;22453;-70
2022/09/23 02:36:06;;;;;;;7.20;6.40;;;;;;;5.45;88.97;100971.00;87033;1295;22502;-70
2022/09/23 02:38:20;;;;;;;7.10;6.00;;;;;;;5.42;88.77;100970.85;87136;1281;25732;-70
2022/09/23 02:40:33;;;;;;;7.50;6.70;;;;;;;5.39;89.09;100967.92;87144;1302;22480;-70
2022/09/23 02:42:50;;;;;;;9.00;6.90;;;;;;;5.38;88.92;100970.36;86957;1287;25423;-70
2022/09/23 02:44:59;;;;;;;9.60;6.10;;;;;;;5.36;88.96;100975.21;87121;1306;24181;-71
2022/09/23 02:47:09;;;;;;;7.10;5.90;;;;;;;5.36;88.84;100978.15;87093;1291;22496;-71
2022/09/23 02:49:20;;;;;;;7.80;5.50;;;;;;;5.35;88.80;100975.91;87072;1305;22477;-71
2022/09/23 02:51:28;;;;;;;7.10;4.80;;;;;;;5.34;88.72;100976.10;87115;1287;27232;-69
2022/09/23 02:53:37;;;;;;;10.80;6.10;;;;;;;5.34;89.00;100973.34;87126;1306;24082;-70
2022/09/23 02:55:45;;;;;;;7.10;5.60;;;;;;;5.35;89.34;100975.05;87133;1286;22467;-70
2022/09/23 02:57:54;;;;;;;6.90;6.00;;;;;;;5.37;89.22;100974.36;87081;1290;22478;-70
2022/09/23 03:00:03;;;;;;;7.60;6.60;;;;;;;5.37;89.12;100972.96;87148;1292;22484;-70
2022/09/23 03:02:30;;;;;;;10.20;6.70;;;;;;;5.38;89.15;100974.17;87109;1287;22476;-70
2022/09/23 03:04:46;;;;;;;10.00;6.00;;;;;;;5.36;89.29;100972.79;87091;1280;22494;-70
2022/09/23 03:07:05;;;;;;;7.90;6.30;;;;;;;5.35;89.17;100977.13;87120;1306;22465;-70
2022/09/23 03:09:20;;;;;;;6.70;6.10;;;;;;;5.33;89.31;100974.20;87110;1305;24458;-70
2022/09/23 03:11:29;;;;;;;8.40;5.90;;;;;;;5.30;89.15;100974.39;87199;1285;22520;-70
2022/09/23 03:13:51;;;;;;;9.40;6.60;;;;;;;5.27;89.32;100973.89;87210;1282;23871;-70
2022/09/23 03:16:12;;;;;;;6.50;5.60;;;;;;;5.25;89.40;100976.32;87206;1274;22483;-69
2022/09/23 03:18:24;;;;;;;7.20;6.30;;;;;;;5.25;89.88;100977.70;87105;1296;24077;-71
2022/09/23 03:20:36;;;;;;;9.70;5.80;;;;;;;5.26;89.63;100978.74;87092;1302;22465;-69
2022/09/23 03:22:47;;;;;;;5.90;5.30;;;;;;;5.24;89.79;100974.95;87129;1281;26708;-70
2022/09/23 03:24:56;;;;;;;6.90;5.90;;;;;;;5.21;89.55;100975.49;87077;1297;22518;-71
2022/09/23 03:27:12;;;;;;;6.30;5.40;;;;;;;5.18;89.45;100972.76;87158;1297;22497;-70
2022/09/23 03:29:21;;;;;;;6.10;5.40;;;;;;;5.17;89.50;100970.16;87212;1304;22428;-70
2022/09/23 03:31:29;;;;;;;9.50;6.20;;;;;;;5.16;89.31;100969.29;87180;1285;22454;-70
2022/09/23 03:33:38;;;;;;;7.50;6.10;;;;;;;5.14;89.29;100971.73;87108;1306;22480;-70
2022/09/23 03:38:18;;;;;;;6.80;6.10;;;;;;;5.06;89.15;100971.78;87096;1275;22461;-69
2022/09/23 03:40:29;;;;;;;8.60;6.00;;;;;;;5.02;89.44;100969.73;87189;1292;22479;-70
2022/09/23 03:42:37;;;;;;;7.90;6.20;;;;;;;4.99;89.24;100968.36;87190;1275;22518;-68
2022/09/23 03:44:47;;;;;;;6.00;5.40;;;;;;;4.96;89.27;100969.06;87182;1304;22485;-70
2022/09/23 03:46:57;;;;;;;6.80;5.60;;;;;;;4.92;89.02;100964.59;87161;1282;22902;-67
2022/09/23 03:49:11;;;;;;;7.50;6.80;;;;;;;4.88;89.00;100964.45;87095;1282;22478;-70
2022/09/23 03:51:24;;;;;;;11.30;6.90;;;;;;;4.83;89.01;100961.70;87145;1294;22521;-68
2022/09/23 03:53:33;;;;;;;6.40;5.80;;;;;;;4.78;89.05;100960.70;87179;1285;22476;-70
2022/09/23 03:55:42;;;;;;;7.00;5.70;;;;;;;4.74;89.27;100960.02;87133;1282;23862;-69
2022/09/23 03:57:50;;;;;;;6.90;6.00;;;;;;;4.70;89.06;100963.31;87127;1286;22474;-69
2022/09/23 03:59:59;;;;;;;6.30;5.70;;;;;;;4.66;89.09;100962.98;87158;1285;22514;-70
2022/09/23 04:02:08;;;;;;;9.50;7.20;;;;;;;4.61;88.88;100963.18;87080;1287;22470;-70
2022/09/23 04:04:17;;;;;;;7.20;6.30;;;;;;;4.57;89.00;100966.48;87120;1280;24051;-69
2022/09/23 04:06:26;;;;;;;7.50;5.90;;;;;;;4.54;89.25;100966.48;87154;1288;22473;-69
2022/09/23 04:08:35;;;;;;;7.00;6.10;;;;;;;4.50;88.85;100965.64;87155;1305;24296;-70
2022/09/23 04:10:45;;;;;;;8.60;5.90;;;;;;;4.44;88.73;100968.42;87105;1294;22750;-70
2022/09/23 04:12:53;;;;;;;6.70;6.00;;;;;;;4.40;88.95;100968.10;87113;1282;22502;-70
2022/09/23 04:15:02;;;;;;;7.20;5.70;;;;;;;4.37;89.00;100969.66;87157;1277;22469;-70
2022/09/23 04:17:11;;;;;;;7.00;6.30;;;;;;;4.34;89.27;100971.56;87092;1275;25275;-70
2022/09/23 04:19:20;;;;;;;5.90;5.30;;;;;;;4.30;89.10;100971.05;87095;1282;22483;-69
2022/09/23 04:21:29;;;;;;;7.30;6.10;;;;;;;4.28;89.11;100971.76;87116;1293;22493;-70
2022/09/23 04:23:38;;;;;;;8.00;6.80;;;;;;;4.26;89.35;100971.59;87122;1287;22478;-71
2022/09/23 04:25:49;;;;;;;6.50;5.90;;;;;;;4.26;89.17;100971.94;87029;1282;25263;-70
2022/09/23 04:27:58;;;;;;;9.50;6.40;;;;;;;4.23;89.12;100972.11;87108;1282;22494;-70
2022/09/23 04:30:09;;;;;;;8.10;6.60;;;;;;;4.21;89.41;100971.77;87145;1274;22467;-70
2022/09/23 04:32:19;;;;;;;8.00;6.00;;;;;;;4.18;89.32;100975.23;87137;1289;22453;-69
2022/09/23 04:34:30;;;;;;;7.30;5.50;;;;;;;4.15;89.29;100973.52;87126;1302;24389;-70
2022/09/23 04:36:39;;;;;;;7.30;5.80;;;;;;;4.13;89.28;100975.25;87137;1306;26654;-69
2022/09/23 04:38:48;;;;;;;6.30;5.40;;;;;;;4.13;89.20;100975.06;87033;1303;22602;-69
2022/09/23 04:40:57;;;;;;;8.60;5.80;;;;;;;4.12;89.30;100977.31;87160;1287;22625;-70
2022/09/23 04:43:06;;;;;;;8.20;5.90;;;;;;;4.12;89.32;100974.21;87144;1288;26625;-71
2022/09/23 04:45:17;;;;;;;6.50;5.50;;;;;;;4.12;89.58;100977.65;87150;1305;26428;-69
2022/09/23 04:47:26;;;;;;;7.90;6.60;;;;;;;4.17;89.47;100973.85;87153;1306;22506;-71
2022/09/23 04:49:34;;;;;;;9.90;7.20;;;;;;;4.20;89.66;100972.99;87141;1291;26488;-71
2022/09/23 04:51:43;;;;;;;10.50;7.30;;;;;;;4.25;89.97;100972.64;87156;1286;24871;-69
2022/09/23 04:53:52;;;;;;;15.00;7.60;;;;;;;4.31;90.29;100970.19;87031;1306;22620;-69
2022/09/23 04:56:08;;;;;;;16.40;8.30;;;;;;;4.37;90.74;100968.27;87164;1306;24010;-70
2022/09/23 04:58:16;;;;;;;23.30;9.30;;;;;;;4.42;90.71;100965.66;87172;1300;24289;-70
2022/09/23 05:00:27;;;;;;;16.40;7.80;;;;;;;4.47;90.91;100962.88;87163;1287;22459;-70
2022/09/23 05:02:38;;;;;;;11.10;8.40;;;;;;;4.52;91.04;100966.67;87095;1274;22443;-70
2022/09/23 05:04:47;;;;;;;11.60;7.60;;;;;;;4.60;91.21;100964.56;87139;1290;22636;-71
2022/09/23 05:06:55;;;;;;;13.50;7.70;;;;;;;4.69;91.55;100965.04;87133;1282;22456;-69
2022/09/23 05:09:06;;;;;;;8.00;7.00;;;;;;;4.79;91.64;100967.59;87131;1274;25233;-70
2022/09/23 05:11:14;;;;;;;8.90;6.80;;;;;;;4.88;91.81;100963.92;87164;1287;22457;-70
2022/09/23 05:13:23;;;;;;;9.60;6.60;;;;;;;4.98;92.16;100963.17;87175;1281;22499;-70
2022/09/23 05:15:31;;;;;;;9.50;7.30;;;;;;;5.09;92.19;100960.68;87141;1281;23930;-70
2022/09/23 05:17:41;;;;;;;11.10;6.40;;;;;;;5.21;92.42;100958.55;87162;1286;22489;-69
2022/09/23 05:19:50;;;;;;;12.50;7.10;;;;;;;5.32;92.56;100954.83;87109;1306;22726;-70
2022/09/23 05:21:58;;;;;;;8.40;7.60;;;;;;;5.45;92.60;100957.50;87160;1292;22719;-70
2022/09/23 05:24:08;;;;;;;9.20;6.70;;;;;;;5.58;92.77;100960.00;87176;1283;22538;-70
2022/09/23 05:26:17;;;;;;;11.70;7.00;;;;;;;5.68;92.70;100959.39;87152;1306;22484;-70
2022/09/23 05:28:27;;;;;;;11.30;8.70;;;;;;;5.78;92.80;100956.37;87160;1305;22658;-70
2022/09/23 05:30:35;;;;;;;12.30;7.20;;;;;;;5.91;93.11;100961.28;87109;1278;22457;-70
2022/09/23 05:32:44;;;;;;;10.20;7.20;;;;;;;6.05;93.08;100964.62;87148;1293;22627;-70
2022/09/23 05:34:54;;;;;;;8.70;7.30;;;;;;;6.14;92.95;100964.87;87157;1306;22648;-71
2022/09/23 05:37:03;;;;;;;11.30;8.20;;;;;;;6.19;92.70;100966.73;87155;1280;25940;-71
2022/09/23 05:39:11;;;;;;;10.60;8.00;;;;;;;6.30;92.61;100969.56;87160;1294;22600;-71
2022/09/23 05:41:21;;;;;;;9.50;8.00;;;;;;;6.48;93.41;100965.56;87123;1305;22453;-69
2022/09/23 05:43:30;;;;;;;13.10;7.90;;;;;;;6.57;92.59;100965.80;87182;1305;22495;-70
2022/09/23 05:45:38;;;;;;;15.50;10.90;;;;;;;6.59;92.23;100968.36;87146;1305;25446;-71
2022/09/23 05:47:47;;;;;;;12.30;9.40;;;;;;;6.78;93.36;100966.21;87136;1284;22469;-70
2022/09/23 05:52:26;;;;;;;10.00;9.00;;;;;;;7.06;92.74;100968.80;87142;1294;22460;-69
2022/09/23 05:54:35;;;;;;;8.20;7.20;;;;;;;7.11;92.43;100968.55;87127;1286;25219;-69
2022/09/23 05:56:43;;;;;;;8.40;7.50;;;;;;;7.16;92.16;100970.05;87127;1287;22870;-69
2022/09/23 05:58:53;;;;;;;8.80;7.90;;;;;;;7.23;92.16;100969.42;87019;1287;22487;-69
2022/09/23 06:01:13;;;;;;;8.60;6.70;;;;;;;7.36;92.34;100969.73;87133;1287;22527;-68
2022/09/23 06:03:23;;;;;;;7.40;6.30;;;;;;;7.45;92.02;100972.73;87123;1293;24274;-70
2022/09/23 06:05:31;;;;;;;7.80;7.10;;;;;;;7.52;91.79;100973.48;87154;1306;26125;-70
2022/09/23 06:07:40;;;;;;;8.50;6.20;;;;;;;7.60;91.97;100968.33;87159;1287;22602;-71
2022/09/23 06:09:49;;;;;;;7.40;6.70;;;;;;;7.70;91.86;100972.16;87162;1283;24264;-69
2022/09/23 06:11:58;;;;;;;8.10;7.30;;;;;;;7.82;92.09;100971.59;87152;1305;22502;-70
2022/09/23 06:14:08;;;;;;;8.40;7.50;;;;;;;8.01;92.60;100973.36;86998;1293;22478;-70
2022/09/23 06:16:17;;;;;;;9.90;6.70;;;;;;;8.21;92.78;100974.21;87123;1305;22466;-69
2022/09/23 06:18:26;;;;;;;11.40;7.10;;;;;;;8.47;93.44;100972.19;87161;1302;22477;-69
2022/09/23 06:20:35;;;;;;;9.20;7.20;;;;;;;8.74;93.41;100972.51;87147;1293;22467;-69
2022/09/23 06:22:44;;;;;;;8.50;7.50;;;;;;;8.96;93.19;100972.74;87162;1306;23779;-70
2022/09/23 06:24:52;;;;;;;12.90;7.40;;;;;;;9.12;92.08;100968.20;87149;1306;22486;-70
2022/09/23 06:27:01;;;;;;;11.70;8.30;;;;;;;9.21;91.25;100967.32;87134;1287;22486;-70
2022/09/23 06:29:13;;;;;;;9.40;8.30;;;;;;;9.30;90.46;100973.37;87129;1280;21730;-70
2022/09/23 06:31:24;;;;;;;10.80;9.10;;;;;;;9.35;89.96;100971.67;87165;1306;22440;-70
2022/09/23 06:33:33;;;;;;;11.70;9.60;;;;;;;9.41;89.52;100973.27;87146;1304;23993;-70
2022/09/23 06:35:42;;;;;;;12.90;10.70;;;;;;;9.56;89.64;100971.88;87117;1306;22479;-69
2022/09/23 06:37:53;;;;;;;12.80;11.40;;;;;;;9.74;89.02;100966.20;87110;1287;22474;-68
2022/09/23 06:40:04;;;;;;;13.60;10.90;;;;;;;9.91;88.42;100967.88;87192;1287;22585;-68
2022/09/23 06:42:16;;;;;;;12.40;10.30;;;;;;;9.98;87.66;100968.39;87111;1306;22464;-69
2022/09/23 06:44:30;;;;;;;14.60;11.70;;;;;;;10.04;87.50;100968.06;87154;1288;25228;-70
2022/09/23 06:46:43;;;;;;;13.90;10.50;;;;;;;10.14;87.37;100970.25;87224;1282;22699;-68
2022/09/23 06:48:56;;;;;;;11.20;9.60;;;;;;;10.26;87.05;100967.31;87193;1298;24405;-70
2022/09/23 06:51:07;;;;;;;12.90;9.90;;;;;;;10.39;87.07;100966.80;87246;1306;22477;-69
2022/09/23 06:53:16;;;;;;;10.70;9.00;;;;;;;10.53;87.01;100962.92;87217;1304;22512;-69
2022/09/23 06:55:29;;;;;;;11.60;9.20;;;;;;;10.66;86.47;100965.16;87197;1278;22429;-69
2022/09/23 06:57:38;;;;;;;12.60;10.90;;;;;;;10.78;86.23;100967.59;87242;1304;24374;-68
2022/09/23 06:59:49;;;;;;;13.80;10.10;;;;;;;10.93;85.89;100971.51;87156;1298;22486;-68
2022/09/23 07:02:00;;;;;;;11.90;9.40;;;;;;;11.05;85.50;100967.30;87220;1286;22480;-71
2022/09/23 07:04:12;;;;;;;10.40;8.80;;;;;;;11.14;85.60;100965.48;87184;1289;22478;-70
2022/09/23 07:06:21;;;;;;;10.40;9.20;;;;;;;11.27;84.91;100965.23;87142;1298;22458;-67
2022/09/23 07:08:33;;;;;;;9.80;8.80;;;;;;;11.31;83.60;100967.21;87179;1296;24372;-68
2022/09/23 07:10:42;;;;;;;10.50;9.30;;;;;;;11.25;83.01;100966.52;87221;1284;22980;-68
2022/09/23 07:12:54;;;;;;;10.60;9.60;;;;;;;11.24;82.90;100966.73;87196;1304;22588;-67
2022/09/23 07:15:04;;;;;;;10.70;9.60;;;;;;;11.32;83.08;100971.55;87131;1298;25631;-70
2022/09/23 07:17:13;;;;;;;11.80;9.40;;;;;;;11.41;83.06;100973.17;87229;1298;22470;-67
2022/09/23 07:19:23;;;;;;;9.40;8.50;;;;;;;11.45;82.89;100973.77;87228;1279;22456;-69
2022/09/23 07:21:36;;;;;;;10.10;9.00;;;;;;;11.46;81.94;100971.44;87058;1305;22509;-68
2022/09/23 07:23:45;;;;;;;9.50;8.50;;;;;;;11.45;81.38;100968.86;87197;1277;22488;-71
2022/09/23 07:25:56;;;;;;;8.80;7.90;;;;;;;11.45;81.88;100972.52;87206;1300;25233;-71
2022/09/23 07:28:05;;;;;;;9.10;8.10;;;;;;;11.47;81.51;100969.85;87224;1305;22463;-68
2022/09/23 07:30:15;;;;;;;9.70;8.70;;;;;;;11.58;81.70;100968.98;86818;1283;581967;-68
2022/09/23 07:32:24;;;;;;;9.30;8.40;;;;;;;11.94;81.35;100967.09;87234;1279;22466;-70
2022/09/23 07:34:33;;;;;;;12.80;8.90;;;;;;;12.28;80.45;100964.18;87126;1288;22471;-69
2022/09/23 07:36:42;;;;;;;10.90;9.80;;;;;;;12.48;80.32;100963.25;87233;1304;25387;-69
2022/09/23 07:38:51;;;;;;;10.00;9.00;;;;;;;12.73;80.91;100962.34;87180;1296;24408;-70
2022/09/23 07:41:10;;;;;;;10.90;9.10;;;;;;;13.22;80.60;100961.02;87202;1287;22465;-68
2022/09/23 07:43:21;;;;;;;9.40;8.50;;;;;;;13.83;79.50;100962.17;87177;1302;25369;-69
2022/09/23 07:45:33;;;;;;;9.50;8.60;;;;;;;14.46;78.60;100962.63;87150;1304;22487;-70
2022/09/23 07:47:41;;;;;;;9.50;8.50;;;;;;;15.09;77.08;100956.23;87146;1300;22489;-71
2022/09/23 07:49:50;;;;;;;9.70;8.80;;;;;;;15.76;75.21;100952.84;87201;1291;22491;-70
2022/09/23 07:51:59;;;;;;;11.10;8.30;;;;;;;16.43;73.34;100947.09;87134;1306;26723;-69
2022/09/23 07:54:09;;;;;;;10.40;8.30;;;;;;;17.20;72.81;100949.61;87185;1292;23062;-71
2022/09/23 07:56:18;;;;;;;7.40;6.40;;;;;;;18.09;68.70;100953.63;87210;1294;22459;-69
2022/09/23 07:58:27;;;;;;;7.10;6.50;;;;;;;18.76;64.87;100951.59;87210;1287;22466;-71
2022/09/23 08:00:36;;;;;;;8.60;7.90;;;;;;;19.23;62.90;100947.06;87227;1287;24222;-70
2022/09/23 08:02:44;;;;;;;11.40;9.10;;;;;;;19.94;60.51;100947.12;87212;1300;25433;-70
2022/09/23 08:04:53;;;;;;;12.70;8.90;;;;;;;20.60;58.92;100943.64;87209;1284;22459;-69
2022/09/23 08:07:04;;;;;;;11.50;9.00;;;;;;;21.29;56.42;100940.73;87213;1304;25586;-71
2022/09/23 08:09:12;;;;;;;8.80;8.00;;;;;;;21.91;54.75;100938.77;87224;1284;25271;-68
2022/09/23 08:11:22;;;;;;;7.40;6.50;;;;;;;22.49;52.61;100936.27;87190;1287;22836;-69
2022/09/23 08:13:31;;;;;;;10.00;7.30;;;;;;;22.96;50.40;100932.38;87135;1284;22467;-70
2022/09/23 08:15:42;;;;;;;9.30;6.50;;;;;;;23.35;48.41;100932.55;87194;1287;25471;-70
2022/09/23 08:17:51;;;;;;;8.00;6.00;;;;;;;23.61;47.44;100932.01;87144;1305;24253;-70
2022/09/23 08:20:01;;;;;;;6.80;6.30;;;;;;;24.09;47.26;100928.79;87138;1284;21722;-70
2022/09/23 08:22:11;;;;;;;6.60;5.80;;;;;;;24.46;45.79;100926.64;87109;1284;22484;-70
2022/09/23 08:24:22;;;;;;;6.60;6.00;;;;;;;24.85;44.69;100927.52;87150;1284;22462;-70
2022/09/23 08:26:33;;;;;;;6.40;5.70;;;;;;;25.08;43.64;100923.66;87122;1303;22603;-70
2022/09/23 08:28:43;;;;;;;6.20;5.60;;;;;;;24.85;43.74;100920.74;87074;1305;22492;-70
2022/09/23 08:30:53;;;;;;;6.20;5.50;;;;;;;24.57;43.56;100918.35;87170;1294;22474;-70
2022/09/23 08:33:01;;;;;;;4.60;4.20;;;;;;;24.40;43.70;100912.16;87140;1296;25736;-70
2022/09/23 08:35:11;;;;;;;5.70;4.60;;;;;;;24.26;43.84;100912.13;87168;1306;25496;-68
2022/09/23 08:37:18;;;;;;;;;;;;;;;24.18;43.35;100908.52;87169;1300;24267;-69
2022/09/23 08:39:26;;;;;;;3.60;3.30;;;;;;;23.89;42.77;100907.31;87144;1305;22448;-68
2022/09/23 08:41:44;;;;;;;2.30;2.10;;;;;;;23.77;43.06;100907.52;87144;1284;25640;-70
2022/09/23 08:43:56;;;;;;;3.70;2.10;;;;;;;23.81;42.93;100903.20;87138;1297;24331;-68
2022/09/23 08:46:06;;;;;;;2.30;1.90;;;;;;;23.92;43.18;100898.34;87148;1278;22469;-68
2022/09/23 08:48:18;;;;;;;2.30;2.10;;;;;;;23.87;43.35;100896.86;87111;1287;22479;-69
2022/09/23 08:50:29;;;;;;;1.80;1.70;;;;;;;23.55;42.90;100900.59;87144;1305;23627;-69
2022/09/23 08:52:50;;;;;;;1.90;1.70;;;;;;;22.83;42.10;100899.53;87145;1306;22464;-68
2022/09/23 08:55:02;;;;;;;1.60;1.50;;;;;;;22.31;42.39;100901.43;87185;1287;22461;-68
2022/09/23 08:57:25;;;;;;;1.50;1.40;;;;;;;22.05;43.01;100903.23;87141;1292;22464;-67
2022/09/23 08:59:43;;;;;;;1.80;1.70;;;;;;;21.69;43.61;100904.23;87138;1306;22458;-69
2022/09/23 09:01:53;;;;;;;1.30;1.20;;;;;;;21.74;44.09;100900.30;87126;1287;22471;-69
2022/09/23 09:04:04;;;;;;;1.20;1.10;;;;;;;21.51;43.77;100900.42;87165;1306;25657;-70
2022/09/23 09:06:18;;;;;;;1.70;1.00;;;;;;;21.09;44.32;100901.92;87146;1288;22485;-70
2022/09/23 09:08:30;;;;;;;2.20;1.10;;;;;;;20.53;44.65;100906.55;87145;1275;22461;-70
2022/09/23 09:10:43;;;;;;;1.00;1.00;;;;;;;19.97;45.18;100907.93;87186;1305;26721;-70
2022/09/23 09:12:55;;;;;;;1.90;1.50;;;;;;;19.65;46.17;100906.79;87205;1303;23926;-69
2022/09/23 09:15:11;;;;;;;1.10;0.90;;;;;;;20.03;46.77;100903.13;87172;1304;24292;-68
2022/09/23 09:17:45;;;;;;;0.80;0.80;;;;;;;20.79;46.95;100895.60;87224;1304;24262;-71
2022/09/23 09:20:13;;;;;;;0.90;0.90;;;;;;;21.64;44.56;100890.45;87206;1304;22463;-70
2022/09/23 09:23:23;;;;;;;;;;;;;;;;;;;;;
2022/09/23 09:25:58;;;;;;;;;;;;;;;21.68;41.74;100890.82;87221;1305;22910;-69
2022/09/23 09:28:38;;;;;;;0.80;0.70;;;;;;;21.65;40.95;100893.38;87194;1287;26453;-69
2022/09/23 09:30:53;;;;;;;0.70;0.40;;;;;;;22.07;40.55;100883.20;87215;1298;22477;-70
2022/09/23 09:33:03;;;;;;;1.20;1.10;;;;;;;22.49;39.83;100882.20;87169;1284;22670;-68
2022/09/23 09:35:20;;;;;;;0.90;0.50;;;;;;;22.93;40.59;100875.33;87212;1284;22450;-69
2022/09/23 09:37:34;;;;;;;0.90;0.70;;;;;;;23.27;39.48;100877.08;87188;1280;22493;-69
2022/09/23 09:39:46;;;;;;;0.60;0.60;;;;;;;22.78;37.33;100880.34;87180;1284;25284;-69
2022/09/23 09:41:58;;;;;;;1.00;0.70;;;;;;;21.93;37.86;100886.60;87182;1284;22519;-70
2022/09/23 09:44:17;;;;;;;0.90;0.60;;;;;;;21.22;39.25;100880.98;87169;1301;22466;-70
2022/09/23 09:46:51;;;;;;;0.70;0.60;;;;;;;21.02;41.37;100880.50;87186;1287;22472;-70
2022/09/23 09:49:03;;;;;;;2.90;0.60;;;;;;;21.13;42.20;100877.88;87203;1305;22472;-68
2022/09/23 09:51:22;;;;;;;0.90;0.70;;;;;;;21.22;41.90;100873.51;87199;1301;22463;-71
2022/09/23 09:53:34;;;;;;;1.10;0.70;;;;;;;21.03;41.14;100875.40;87175;1287;24340;-69
2022/09/23 09:55:43;;;;;;;0.80;0.80;;;;;;;20.57;40.29;100872.75;87203;1306;24409;-70
2022/09/23 09:57:54;;;;;;;1.20;0.80;;;;;;;20.08;40.18;100872.66;87214;1284;24233;-70
2022/09/23 10:00:19;;;;;;;1.30;0.80;;;;;;;19.69;40.89;100869.09;87244;1303;22462;-70
2022/09/23 10:02:30;;;;;;;1.20;1.10;;;;;;;19.40;41.31;100867.18;87217;1290;22479;-71
2022/09/23 10:04:40;;;;;;;1.20;0.90;;;;;;;18.99;41.61;100864.40;87239;1289;22463;-68
2022/09/23 10:07:03;;;;;;;1.20;0.80;;;;;;;18.66;42.48;100866.52;87201;1284;22469;-70
2022/09/23 10:09:19;;;;;;;1.50;0.70;;;;;;;18.43;43.11;100867.80;87235;1287;25674;-70
2022/09/23 10:11:27;;;;;;;1.30;1.10;;;;;;;18.18;43.35;100870.02;87251;1306;25379;-69
2022/09/23 10:13:36;;;;;;;0.70;0.70;;;;;;;17.90;42.90;100865.45;87236;1291;22529;-69
2022/09/23 10:15:47;;;;;;;1.30;0.80;;;;;;;17.71;44.17;100864.59;87201;1304;22514;-70
2022/09/23 10:18:00;;;;;;;0.90;0.90;;;;;;;17.75;45.80;100856.77;87175;1306;22455;-68
2022/09/23 10:20:16;;;;;;;1.40;0.80;;;;;;;17.89;45.42;100851.73;87208;1294;24298;-69
2022/09/23 10:22:32;;;;;;;3.60;0.90;;;;;;;18.00;44.99;100857.02;87160;1304;22701;-70
2022/09/23 10:24:42;;;;;;;1.00;0.70;;;;;;;17.72;43.87;100857.30;87066;1306;22492;-70
2022/09/23 10:26:58;;;;;;;1.20;1.10;;;;;;;17.38;44.44;100854.20;87198;1304;22478;-68
2022/09/23 10:29:23;;;;;;;1.10;0.80;;;;;;;17.09;45.15;100849.17;87234;1284;22461;-71